Aviation Digital Data Service (ADDS)

Output produced by METARs form (0257 UTC 30 July 2014)
found at http://aviationweather.gov/adds/metars/
 
KCRG 292320Z 3000/3024 33005KT P6SM SCT060 
     FM300300 00000KT P6SM SKC 
     FM301400 33006KT P6SM FEW060